sensor_id;sensor_type;location;lat;lon;timestamp;P1;durP1;ratioP1;P2;durP2;ratioP2
3873;SDS011;1952;50.872;6.692;2022-09-04T00:31:05;10.93;;;8.70;;
3873;SDS011;1952;50.872;6.692;2022-09-04T00:33:46;9.77;;;8.87;;
3873;SDS011;1952;50.872;6.692;2022-09-04T00:36:20;11.50;;;9.60;;
3873;SDS011;1952;50.872;6.692;2022-09-04T00:38:52;9.13;;;8.20;;
3873;SDS011;1952;50.872;6.692;2022-09-04T00:41:30;10.03;;;9.03;;
3873;SDS011;1952;50.872;6.692;2022-09-04T00:44:16;11.00;;;10.00;;
3873;SDS011;1952;50.872;6.692;2022-09-04T00:47:01;12.43;;;11.33;;
3873;SDS011;1952;50.872;6.692;2022-09-04T00:52:57;11.90;;;10.80;;
3873;SDS011;1952;50.872;6.692;2022-09-04T00:55:41;13.67;;;12.43;;
3873;SDS011;1952;50.872;6.692;2022-09-04T01:01:18;13.00;;;11.43;;
3873;SDS011;1952;50.872;6.692;2022-09-04T01:03:57;12.10;;;10.97;;
3873;SDS011;1952;50.872;6.692;2022-09-04T01:06:49;13.03;;;11.83;;
3873;SDS011;1952;50.872;6.692;2022-09-04T01:09:40;12.27;;;11.17;;
3873;SDS011;1952;50.872;6.692;2022-09-04T01:12:21;9.87;;;8.87;;
3873;SDS011;1952;50.872;6.692;2022-09-04T01:15:06;9.53;;;8.67;;
3873;SDS011;1952;50.872;6.692;2022-09-04T01:17:49;11.27;;;10.17;;
3873;SDS011;1952;50.872;6.692;2022-09-04T01:20:29;12.93;;;11.53;;
3873;SDS011;1952;50.872;6.692;2022-09-04T01:23:19;12.60;;;11.30;;
3873;SDS011;1952;50.872;6.692;2022-09-04T01:26:05;12.80;;;11.60;;
3873;SDS011;1952;50.872;6.692;2022-09-04T01:28:38;12.10;;;10.40;;
3873;SDS011;1952;50.872;6.692;2022-09-04T01:31:20;10.57;;;9.60;;
3873;SDS011;1952;50.872;6.692;2022-09-04T01:34:01;13.30;;;11.93;;
3873;SDS011;1952;50.872;6.692;2022-09-04T01:36:40;11.77;;;10.30;;
3873;SDS011;1952;50.872;6.692;2022-09-04T01:39:14;12.43;;;11.23;;
3873;SDS011;1952;50.872;6.692;2022-09-04T01:41:49;11.87;;;10.40;;
3873;SDS011;1952;50.872;6.692;2022-09-04T01:44:24;12.47;;;11.17;;
3873;SDS011;1952;50.872;6.692;2022-09-04T01:47:00;12.27;;;11.17;;
3873;SDS011;1952;50.872;6.692;2022-09-04T01:49:35;10.23;;;9.30;;
3873;SDS011;1952;50.872;6.692;2022-09-04T01:52:17;9.50;;;8.60;;
3873;SDS011;1952;50.872;6.692;2022-09-04T01:55:13;10.53;;;9.50;;
3873;SDS011;1952;50.872;6.692;2022-09-04T01:57:54;10.13;;;9.17;;
3873;SDS011;1952;50.872;6.692;2022-09-04T02:00:36;10.23;;;9.20;;
3873;SDS011;1952;50.872;6.692;2022-09-04T02:03:15;9.20;;;8.37;;
3873;SDS011;1952;50.872;6.692;2022-09-04T02:05:51;10.60;;;9.70;;
3873;SDS011;1952;50.872;6.692;2022-09-04T02:08:34;8.93;;;8.07;;
3873;SDS011;1952;50.872;6.692;2022-09-04T02:11:20;11.87;;;10.67;;
3873;SDS011;1952;50.872;6.692;2022-09-04T02:14:07;10.07;;;9.17;;
3873;SDS011;1952;50.872;6.692;2022-09-04T02:16:39;10.60;;;8.70;;
3873;SDS011;1952;50.872;6.692;2022-09-04T02:19:19;11.40;;;10.23;;
3873;SDS011;1952;50.872;6.692;2022-09-04T02:21:55;8.60;;;7.80;;
3873;SDS011;1952;50.872;6.692;2022-09-04T02:24:28;6.97;;;6.43;;
3873;SDS011;1952;50.872;6.692;2022-09-04T02:26:58;8.80;;;8.00;;
3873;SDS011;1952;50.872;6.692;2022-09-04T02:29:32;9.03;;;8.23;;
3873;SDS011;1952;50.872;6.692;2022-09-04T02:32:08;7.30;;;6.70;;
3873;SDS011;1952;50.872;6.692;2022-09-04T02:34:45;7.80;;;7.10;;
3873;SDS011;1952;50.872;6.692;2022-09-04T02:37:16;7.17;;;6.57;;
3873;SDS011;1952;50.872;6.692;2022-09-04T02:39:57;6.90;;;6.40;;
3873;SDS011;1952;50.872;6.692;2022-09-04T02:42:30;8.33;;;7.63;;
3873;SDS011;1952;50.872;6.692;2022-09-04T02:45:12;6.97;;;6.47;;
3873;SDS011;1952;50.872;6.692;2022-09-04T02:47:49;6.87;;;6.27;;
3873;SDS011;1952;50.872;6.692;2022-09-04T02:50:28;8.87;;;6.80;;
3873;SDS011;1952;50.872;6.692;2022-09-04T02:53:12;6.30;;;5.80;;
3873;SDS011;1952;50.872;6.692;2022-09-04T02:55:51;6.53;;;5.93;;
3873;SDS011;1952;50.872;6.692;2022-09-04T02:58:31;5.93;;;5.53;;
3873;SDS011;1952;50.872;6.692;2022-09-04T03:01:15;5.90;;;5.30;;
3873;SDS011;1952;50.872;6.692;2022-09-04T03:03:55;5.23;;;4.90;;
3873;SDS011;1952;50.872;6.692;2022-09-04T03:06:39;7.97;;;7.27;;
3873;SDS011;1952;50.872;6.692;2022-09-04T03:09:09;6.30;;;5.80;;
3873;SDS011;1952;50.872;6.692;2022-09-04T03:11:41;7.00;;;6.50;;
3873;SDS011;1952;50.872;6.692;2022-09-04T03:14:16;5.93;;;5.43;;
3873;SDS011;1952;50.872;6.692;2022-09-04T03:16:53;7.03;;;6.33;;
3873;SDS011;1952;50.872;6.692;2022-09-04T03:19:29;6.40;;;5.90;;
3873;SDS011;1952;50.872;6.692;2022-09-04T03:22:09;6.67;;;6.07;;
3873;SDS011;1952;50.872;6.692;2022-09-04T03:24:56;6.80;;;6.20;;
3873;SDS011;1952;50.872;6.692;2022-09-04T03:27:32;6.93;;;6.23;;
3873;SDS011;1952;50.872;6.692;2022-09-04T03:30:02;7.57;;;6.90;;
3873;SDS011;1952;50.872;6.692;2022-09-04T03:32:41;6.83;;;6.30;;
3873;SDS011;1952;50.872;6.692;2022-09-04T03:35:15;7.30;;;6.70;;
3873;SDS011;1952;50.872;6.692;2022-09-04T03:37:51;8.07;;;7.30;;
3873;SDS011;1952;50.872;6.692;2022-09-04T03:40:24;9.13;;;6.90;;
3873;SDS011;1952;50.872;6.692;2022-09-04T03:43:02;9.07;;;7.70;;
3873;SDS011;1952;50.872;6.692;2022-09-04T03:45:41;8.80;;;8.00;;
3873;SDS011;1952;50.872;6.692;2022-09-04T03:48:21;7.53;;;6.93;;
3873;SDS011;1952;50.872;6.692;2022-09-04T03:51:00;6.60;;;6.10;;
3873;SDS011;1952;50.872;6.692;2022-09-04T03:53:31;7.60;;;6.80;;
3873;SDS011;1952;50.872;6.692;2022-09-04T03:56:18;7.57;;;6.87;;
3873;SDS011;1952;50.872;6.692;2022-09-04T03:58:58;6.27;;;5.67;;
3873;SDS011;1952;50.872;6.692;2022-09-04T04:01:32;5.13;;;4.73;;
3873;SDS011;1952;50.872;6.692;2022-09-04T04:04:10;6.20;;;5.70;;
3873;SDS011;1952;50.872;6.692;2022-09-04T04:06:42;6.53;;;6.00;;
3873;SDS011;1952;50.872;6.692;2022-09-04T04:12:16;6.33;;;5.80;;
3873;SDS011;1952;50.872;6.692;2022-09-04T04:17:52;6.77;;;6.10;;
3873;SDS011;1952;50.872;6.692;2022-09-04T04:20:30;5.23;;;4.80;;
3873;SDS011;1952;50.872;6.692;2022-09-04T04:23:09;5.23;;;4.83;;
3873;SDS011;1952;50.872;6.692;2022-09-04T04:25:49;5.20;;;4.73;;
3873;SDS011;1952;50.872;6.692;2022-09-04T04:28:29;5.57;;;4.33;;
3873;SDS011;1952;50.872;6.692;2022-09-04T04:31:07;5.53;;;5.03;;
3873;SDS011;1952;50.872;6.692;2022-09-04T04:33:43;4.90;;;4.60;;
3873;SDS011;1952;50.872;6.692;2022-09-04T04:36:17;4.87;;;4.53;;
3873;SDS011;1952;50.872;6.692;2022-09-04T04:41:52;5.03;;;4.63;;
3873;SDS011;1952;50.872;6.692;2022-09-04T04:47:51;5.80;;;5.30;;
3873;SDS011;1952;50.872;6.692;2022-09-04T04:50:34;4.90;;;4.50;;
3873;SDS011;1952;50.872;6.692;2022-09-04T04:53:08;6.30;;;4.53;;
3873;SDS011;1952;50.872;6.692;2022-09-04T04:55:46;4.40;;;4.00;;
3873;SDS011;1952;50.872;6.692;2022-09-04T04:58:24;4.70;;;3.90;;
3873;SDS011;1952;50.872;6.692;2022-09-04T05:00:56;4.60;;;4.20;;
3873;SDS011;1952;50.872;6.692;2022-09-04T05:03:32;5.47;;;4.30;;
3873;SDS011;1952;50.872;6.692;2022-09-04T05:06:10;4.60;;;4.20;;
3873;SDS011;1952;50.872;6.692;2022-09-04T05:08:53;4.40;;;4.00;;
3873;SDS011;1952;50.872;6.692;2022-09-04T05:11:23;5.00;;;4.60;;
3873;SDS011;1952;50.872;6.692;2022-09-04T05:14:12;5.37;;;4.87;;
3873;SDS011;1952;50.872;6.692;2022-09-04T05:16:46;4.53;;;4.23;;
3873;SDS011;1952;50.872;6.692;2022-09-04T05:19:22;4.10;;;3.80;;
3873;SDS011;1952;50.872;6.692;2022-09-04T05:22:03;3.97;;;3.67;;
3873;SDS011;1952;50.872;6.692;2022-09-04T05:24:47;4.30;;;4.00;;
3873;SDS011;1952;50.872;6.692;2022-09-04T05:30:17;4.47;;;4.13;;
3873;SDS011;1952;50.872;6.692;2022-09-04T05:32:54;4.70;;;4.30;;
3873;SDS011;1952;50.872;6.692;2022-09-04T05:35:34;4.73;;;4.33;;
3873;SDS011;1952;50.872;6.692;2022-09-04T05:38:07;4.07;;;3.77;;
3873;SDS011;1952;50.872;6.692;2022-09-04T05:40:45;4.27;;;3.87;;
3873;SDS011;1952;50.872;6.692;2022-09-04T05:43:27;3.57;;;3.27;;
3873;SDS011;1952;50.872;6.692;2022-09-04T05:46:03;5.03;;;4.57;;
3873;SDS011;1952;50.872;6.692;2022-09-04T05:48:47;4.33;;;3.93;;
3873;SDS011;1952;50.872;6.692;2022-09-04T05:51:28;8.43;;;4.20;;
3873;SDS011;1952;50.872;6.692;2022-09-04T06:33:20;3.00;;;2.80;;
3873;SDS011;1952;50.872;6.692;2022-09-04T06:36:19;3.63;;;3.33;;
3873;SDS011;1952;50.872;6.692;2022-09-04T06:39:12;3.20;;;3.00;;
3873;SDS011;1952;50.872;6.692;2022-09-04T06:42:10;4.10;;;3.50;;
3873;SDS011;1952;50.872;6.692;2022-09-04T06:44:59;3.30;;;3.00;;
3873;SDS011;1952;50.872;6.692;2022-09-04T06:47:47;3.53;;;3.33;;
3873;SDS011;1952;50.872;6.692;2022-09-04T06:50:30;3.50;;;3.27;;
3873;SDS011;1952;50.872;6.692;2022-09-04T06:53:13;3.47;;;3.20;;
3873;SDS011;1952;50.872;6.692;2022-09-04T06:55:56;3.10;;;2.80;;
3873;SDS011;1952;50.872;6.692;2022-09-04T07:01:43;3.83;;;3.53;;
3873;SDS011;1952;50.872;6.692;2022-09-04T07:04:22;3.90;;;3.60;;
3873;SDS011;1952;50.872;6.692;2022-09-04T07:07:06;3.63;;;3.43;;
3873;SDS011;1952;50.872;6.692;2022-09-04T07:09:52;3.60;;;2.83;;
3873;SDS011;1952;50.872;6.692;2022-09-04T07:12:32;4.03;;;3.63;;
3873;SDS011;1952;50.872;6.692;2022-09-04T07:18:20;3.60;;;3.30;;
3873;SDS011;1952;50.872;6.692;2022-09-04T07:21:05;4.00;;;3.60;;
3873;SDS011;1952;50.872;6.692;2022-09-04T07:23:43;3.60;;;3.30;;
3873;SDS011;1952;50.872;6.692;2022-09-04T07:26:26;4.27;;;3.13;;
3873;SDS011;1952;50.872;6.692;2022-09-04T07:29:12;3.63;;;3.33;;
3873;SDS011;1952;50.872;6.692;2022-09-04T07:31:53;3.20;;;3.00;;
3873;SDS011;1952;50.872;6.692;2022-09-04T07:34:30;3.93;;;3.53;;
3873;SDS011;1952;50.872;6.692;2022-09-04T07:37:08;3.23;;;3.03;;
3873;SDS011;1952;50.872;6.692;2022-09-04T07:39:51;3.23;;;3.03;;
3873;SDS011;1952;50.872;6.692;2022-09-04T07:42:31;2.80;;;2.60;;
3873;SDS011;1952;50.872;6.692;2022-09-04T07:45:06;3.20;;;3.00;;
3873;SDS011;1952;50.872;6.692;2022-09-04T07:50:49;3.23;;;3.03;;
3873;SDS011;1952;50.872;6.692;2022-09-04T07:53:35;3.57;;;3.17;;
3873;SDS011;1952;50.872;6.692;2022-09-04T07:56:28;3.00;;;2.70;;
3873;SDS011;1952;50.872;6.692;2022-09-04T08:02:59;2.90;;;2.70;;
3873;SDS011;1952;50.872;6.692;2022-09-04T08:05:43;2.80;;;2.60;;
3873;SDS011;1952;50.872;6.692;2022-09-04T08:08:23;4.23;;;3.83;;
3873;SDS011;1952;50.872;6.692;2022-09-04T08:14:25;2.60;;;2.40;;
3873;SDS011;1952;50.872;6.692;2022-09-04T08:17:32;2.80;;;2.60;;
3873;SDS011;1952;50.872;6.692;2022-09-04T08:23:12;3.10;;;2.87;;
3873;SDS011;1952;50.872;6.692;2022-09-04T08:25:51;3.03;;;2.77;;
3873;SDS011;1952;50.872;6.692;2022-09-04T08:28:45;3.00;;;2.80;;
3873;SDS011;1952;50.872;6.692;2022-09-04T08:31:34;2.70;;;2.47;;
3873;SDS011;1952;50.872;6.692;2022-09-04T08:34:25;2.90;;;2.70;;
3873;SDS011;1952;50.872;6.692;2022-09-04T08:37:13;2.97;;;2.60;;
3873;SDS011;1952;50.872;6.692;2022-09-04T08:39:53;2.53;;;2.30;;
3873;SDS011;1952;50.872;6.692;2022-09-04T08:43:12;2.50;;;2.30;;
3873;SDS011;1952;50.872;6.692;2022-09-04T08:49:26;2.10;;;2.00;;
3873;SDS011;1952;50.872;6.692;2022-09-04T08:55:37;2.10;;;1.90;;
3873;SDS011;1952;50.872;6.692;2022-09-04T08:58:28;2.93;;;2.13;;
3873;SDS011;1952;50.872;6.692;2022-09-04T09:01:26;2.60;;;2.40;;
3873;SDS011;1952;50.872;6.692;2022-09-04T09:04:28;3.43;;;2.20;;
3873;SDS011;1952;50.872;6.692;2022-09-04T09:07:41;1.87;;;1.77;;
3873;SDS011;1952;50.872;6.692;2022-09-04T09:10:36;2.40;;;2.20;;
3873;SDS011;1952;50.872;6.692;2022-09-04T09:13:37;2.87;;;2.23;;
3873;SDS011;1952;50.872;6.692;2022-09-04T09:16:32;2.20;;;2.00;;
3873;SDS011;1952;50.872;6.692;2022-09-04T09:19:18;2.60;;;2.23;;
3873;SDS011;1952;50.872;6.692;2022-09-04T09:22:03;1.90;;;1.80;;
3873;SDS011;1952;50.872;6.692;2022-09-04T09:30:59;2.10;;;1.90;;
3873;SDS011;1952;50.872;6.692;2022-09-04T09:34:01;2.00;;;1.90;;
3873;SDS011;1952;50.872;6.692;2022-09-04T09:36:51;3.40;;;2.07;;
3873;SDS011;1952;50.872;6.692;2022-09-04T09:39:49;2.10;;;2.00;;
3873;SDS011;1952;50.872;6.692;2022-09-04T09:42:54;1.70;;;1.60;;
3873;SDS011;1952;50.872;6.692;2022-09-04T09:45:44;1.93;;;1.70;;
3873;SDS011;1952;50.872;6.692;2022-09-04T09:49:01;1.93;;;1.83;;
3873;SDS011;1952;50.872;6.692;2022-09-04T09:58:18;2.23;;;2.03;;
3873;SDS011;1952;50.872;6.692;2022-09-04T10:01:15;2.47;;;2.10;;
3873;SDS011;1952;50.872;6.692;2022-09-04T10:04:06;1.83;;;1.73;;
3873;SDS011;1952;50.872;6.692;2022-09-04T10:07:09;2.20;;;1.70;;
3873;SDS011;1952;50.872;6.692;2022-09-04T10:13:19;2.37;;;2.17;;
3873;SDS011;1952;50.872;6.692;2022-09-04T10:16:29;2.33;;;1.93;;
3873;SDS011;1952;50.872;6.692;2022-09-04T10:19:12;1.77;;;1.67;;
3873;SDS011;1952;50.872;6.692;2022-09-04T10:25:31;2.87;;;2.67;;
3873;SDS011;1952;50.872;6.692;2022-09-04T10:35:09;3.57;;;2.43;;
3873;SDS011;1952;50.872;6.692;2022-09-04T10:38:17;2.60;;;2.00;;
3873;SDS011;1952;50.872;6.692;2022-09-04T10:44:00;2.30;;;2.10;;
3873;SDS011;1952;50.872;6.692;2022-09-04T10:46:59;1.67;;;1.57;;
3873;SDS011;1952;50.872;6.692;2022-09-04T10:49:47;2.40;;;2.00;;
3873;SDS011;1952;50.872;6.692;2022-09-04T10:55:36;2.97;;;2.50;;
3873;SDS011;1952;50.872;6.692;2022-09-04T10:58:28;3.10;;;2.40;;
3873;SDS011;1952;50.872;6.692;2022-09-04T11:01:20;2.43;;;2.23;;
3873;SDS011;1952;50.872;6.692;2022-09-04T11:10:29;2.80;;;2.60;;
3873;SDS011;1952;50.872;6.692;2022-09-04T11:26:27;2.20;;;2.00;;
3873;SDS011;1952;50.872;6.692;2022-09-04T11:29:37;2.90;;;2.70;;
3873;SDS011;1952;50.872;6.692;2022-09-04T11:39:35;2.60;;;2.40;;
3873;SDS011;1952;50.872;6.692;2022-09-04T12:39:50;5.67;;;2.40;;
3873;SDS011;1952;50.872;6.692;2022-09-04T12:42:40;3.33;;;2.50;;
3873;SDS011;1952;50.872;6.692;2022-09-04T12:45:23;2.27;;;2.17;;
3873;SDS011;1952;50.872;6.692;2022-09-04T12:48:05;2.57;;;2.37;;
3873;SDS011;1952;50.872;6.692;2022-09-04T12:50:47;2.60;;;2.23;;
3873;SDS011;1952;50.872;6.692;2022-09-04T12:57:21;4.70;;;2.50;;
3873;SDS011;1952;50.872;6.692;2022-09-04T13:00:13;3.00;;;2.13;;
3873;SDS011;1952;50.872;6.692;2022-09-04T13:03:13;2.60;;;2.40;;
3873;SDS011;1952;50.872;6.692;2022-09-04T13:05:59;2.43;;;2.23;;
3873;SDS011;1952;50.872;6.692;2022-09-04T13:08:41;2.50;;;2.23;;
3873;SDS011;1952;50.872;6.692;2022-09-04T13:11:30;2.27;;;2.07;;
3873;SDS011;1952;50.872;6.692;2022-09-04T13:17:28;2.20;;;2.00;;
3873;SDS011;1952;50.872;6.692;2022-09-04T13:20:16;2.57;;;2.30;;
3873;SDS011;1952;50.872;6.692;2022-09-04T13:22:54;3.03;;;2.60;;
3873;SDS011;1952;50.872;6.692;2022-09-04T13:25:43;2.40;;;2.20;;
3873;SDS011;1952;50.872;6.692;2022-09-04T13:28:38;2.50;;;2.30;;
3873;SDS011;1952;50.872;6.692;2022-09-04T13:31:45;3.50;;;2.30;;
3873;SDS011;1952;50.872;6.692;2022-09-04T13:37:35;2.60;;;2.40;;
3873;SDS011;1952;50.872;6.692;2022-09-04T13:40:25;2.60;;;2.50;;
3873;SDS011;1952;50.872;6.692;2022-09-04T13:46:30;2.30;;;2.20;;
3873;SDS011;1952;50.872;6.692;2022-09-04T13:49:16;3.37;;;2.50;;
3873;SDS011;1952;50.872;6.692;2022-09-04T13:52:08;2.57;;;2.37;;
3873;SDS011;1952;50.872;6.692;2022-09-04T13:54:45;2.90;;;2.70;;
3873;SDS011;1952;50.872;6.692;2022-09-04T13:57:34;2.80;;;2.60;;
3873;SDS011;1952;50.872;6.692;2022-09-04T14:00:06;3.23;;;3.03;;
3873;SDS011;1952;50.872;6.692;2022-09-04T14:02:42;2.97;;;2.70;;
3873;SDS011;1952;50.872;6.692;2022-09-04T14:05:41;3.57;;;3.17;;
3873;SDS011;1952;50.872;6.692;2022-09-04T14:08:15;3.03;;;2.83;;
3873;SDS011;1952;50.872;6.692;2022-09-04T14:14:16;2.43;;;2.23;;
3873;SDS011;1952;50.872;6.692;2022-09-04T14:17:11;3.77;;;2.90;;
3873;SDS011;1952;50.872;6.692;2022-09-04T14:20:07;2.87;;;2.67;;
3873;SDS011;1952;50.872;6.692;2022-09-04T14:22:52;4.00;;;3.20;;
3873;SDS011;1952;50.872;6.692;2022-09-04T14:25:43;2.87;;;2.67;;
3873;SDS011;1952;50.872;6.692;2022-09-04T14:28:47;4.20;;;2.80;;
3873;SDS011;1952;50.872;6.692;2022-09-04T14:31:43;3.40;;;2.50;;
3873;SDS011;1952;50.872;6.692;2022-09-04T14:34:46;3.00;;;2.70;;
3873;SDS011;1952;50.872;6.692;2022-09-04T14:37:53;3.10;;;2.90;;
3873;SDS011;1952;50.872;6.692;2022-09-04T14:41:17;2.97;;;2.67;;
3873;SDS011;1952;50.872;6.692;2022-09-04T14:44:19;2.90;;;2.70;;
3873;SDS011;1952;50.872;6.692;2022-09-04T14:47:08;2.90;;;2.30;;
3873;SDS011;1952;50.872;6.692;2022-09-04T14:50:05;3.10;;;2.80;;
3873;SDS011;1952;50.872;6.692;2022-09-04T14:52:38;3.87;;;2.33;;
3873;SDS011;1952;50.872;6.692;2022-09-04T14:55:12;3.97;;;2.60;;
3873;SDS011;1952;50.872;6.692;2022-09-04T14:57:49;2.67;;;2.47;;
3873;SDS011;1952;50.872;6.692;2022-09-04T15:00:22;2.53;;;2.43;;
3873;SDS011;1952;50.872;6.692;2022-09-04T15:03:06;2.63;;;2.43;;
3873;SDS011;1952;50.872;6.692;2022-09-04T15:05:47;12.73;;;3.13;;
3873;SDS011;1952;50.872;6.692;2022-09-04T15:08:25;3.50;;;3.20;;
3873;SDS011;1952;50.872;6.692;2022-09-04T15:11:24;3.13;;;2.90;;
3873;SDS011;1952;50.872;6.692;2022-09-04T15:14:15;3.30;;;3.00;;
3873;SDS011;1952;50.872;6.692;2022-09-04T15:17:05;2.70;;;2.50;;
3873;SDS011;1952;50.872;6.692;2022-09-04T15:19:43;3.70;;;2.60;;
3873;SDS011;1952;50.872;6.692;2022-09-04T15:22:14;4.70;;;2.97;;
3873;SDS011;1952;50.872;6.692;2022-09-04T15:24:50;4.53;;;3.10;;
3873;SDS011;1952;50.872;6.692;2022-09-04T15:27:24;3.10;;;2.90;;
3873;SDS011;1952;50.872;6.692;2022-09-04T15:30:00;3.30;;;3.10;;
3873;SDS011;1952;50.872;6.692;2022-09-04T15:32:48;2.90;;;2.70;;
3873;SDS011;1952;50.872;6.692;2022-09-04T15:35:29;3.17;;;2.70;;
3873;SDS011;1952;50.872;6.692;2022-09-04T15:38:03;3.00;;;2.73;;
3873;SDS011;1952;50.872;6.692;2022-09-04T15:40:33;3.43;;;3.20;;
3873;SDS011;1952;50.872;6.692;2022-09-04T15:43:31;3.67;;;2.90;;
3873;SDS011;1952;50.872;6.692;2022-09-04T15:46:04;3.27;;;2.97;;
3873;SDS011;1952;50.872;6.692;2022-09-04T15:48:56;3.50;;;3.20;;
3873;SDS011;1952;50.872;6.692;2022-09-04T15:51:55;3.17;;;2.87;;
3873;SDS011;1952;50.872;6.692;2022-09-04T15:54:49;3.40;;;3.10;;
3873;SDS011;1952;50.872;6.692;2022-09-04T15:57:32;3.37;;;3.07;;
3873;SDS011;1952;50.872;6.692;2022-09-04T16:00:14;3.30;;;2.77;;
3873;SDS011;1952;50.872;6.692;2022-09-04T16:03:02;3.40;;;2.70;;
3873;SDS011;1952;50.872;6.692;2022-09-04T16:05:58;3.90;;;2.90;;
3873;SDS011;1952;50.872;6.692;2022-09-04T16:08:36;2.93;;;2.63;;
3873;SDS011;1952;50.872;6.692;2022-09-04T16:11:17;3.10;;;2.87;;
3873;SDS011;1952;50.872;6.692;2022-09-04T16:13:52;2.90;;;2.70;;
3873;SDS011;1952;50.872;6.692;2022-09-04T16:16:29;3.10;;;2.90;;
3873;SDS011;1952;50.872;6.692;2022-09-04T16:19:09;3.23;;;2.93;;
3873;SDS011;1952;50.872;6.692;2022-09-04T16:21:53;4.93;;;2.90;;
3873;SDS011;1952;50.872;6.692;2022-09-04T16:24:38;3.27;;;3.07;;
3873;SDS011;1952;50.872;6.692;2022-09-04T16:27:32;4.50;;;2.80;;
3873;SDS011;1952;50.872;6.692;2022-09-04T16:30:34;3.27;;;2.97;;
3873;SDS011;1952;50.872;6.692;2022-09-04T16:33:44;3.07;;;2.87;;
3873;SDS011;1952;50.872;6.692;2022-09-04T16:36:44;2.70;;;2.50;;
3873;SDS011;1952;50.872;6.692;2022-09-04T16:42:40;3.40;;;3.00;;
3873;SDS011;1952;50.872;6.692;2022-09-04T16:45:27;2.50;;;2.30;;
3873;SDS011;1952;50.872;6.692;2022-09-04T16:48:14;3.13;;;2.93;;
3873;SDS011;1952;50.872;6.692;2022-09-04T16:51:00;3.27;;;3.03;;
3873;SDS011;1952;50.872;6.692;2022-09-04T16:53:59;3.07;;;2.87;;
3873;SDS011;1952;50.872;6.692;2022-09-04T16:56:35;4.27;;;3.20;;
3873;SDS011;1952;50.872;6.692;2022-09-04T16:59:15;3.47;;;3.17;;
3873;SDS011;1952;50.872;6.692;2022-09-04T17:02:22;6.17;;;3.70;;
3873;SDS011;1952;50.872;6.692;2022-09-04T17:05:31;3.40;;;3.10;;
3873;SDS011;1952;50.872;6.692;2022-09-04T17:08:35;3.10;;;2.80;;
3873;SDS011;1952;50.872;6.692;2022-09-04T17:11:13;3.63;;;3.10;;
3873;SDS011;1952;50.872;6.692;2022-09-04T17:13:49;3.87;;;2.80;;
3873;SDS011;1952;50.872;6.692;2022-09-04T17:16:32;4.93;;;2.90;;
3873;SDS011;1952;50.872;6.692;2022-09-04T17:19:18;3.40;;;3.10;;
3873;SDS011;1952;50.872;6.692;2022-09-04T17:21:57;3.17;;;2.90;;
3873;SDS011;1952;50.872;6.692;2022-09-04T17:25:16;3.60;;;3.30;;
3873;SDS011;1952;50.872;6.692;2022-09-04T17:31:55;2.77;;;2.57;;
3873;SDS011;1952;50.872;6.692;2022-09-04T17:34:50;2.70;;;2.50;;
3873;SDS011;1952;50.872;6.692;2022-09-04T17:37:30;3.20;;;3.00;;
3873;SDS011;1952;50.872;6.692;2022-09-04T17:40:24;3.80;;;3.50;;
3873;SDS011;1952;50.872;6.692;2022-09-04T17:43:10;4.63;;;2.90;;
3873;SDS011;1952;50.872;6.692;2022-09-04T17:45:56;4.53;;;3.30;;
3873;SDS011;1952;50.872;6.692;2022-09-04T17:48:38;2.83;;;2.60;;
3873;SDS011;1952;50.872;6.692;2022-09-04T17:51:15;3.33;;;3.03;;
3873;SDS011;1952;50.872;6.692;2022-09-04T17:53:53;2.90;;;2.60;;
3873;SDS011;1952;50.872;6.692;2022-09-04T18:46:08;3.80;;;3.50;;
3873;SDS011;1952;50.872;6.692;2022-09-04T18:48:58;4.67;;;3.07;;
3873;SDS011;1952;50.872;6.692;2022-09-04T18:51:49;5.27;;;4.00;;
3873;SDS011;1952;50.872;6.692;2022-09-04T18:54:27;4.37;;;4.00;;
3873;SDS011;1952;50.872;6.692;2022-09-04T18:57:11;4.37;;;4.00;;
3873;SDS011;1952;50.872;6.692;2022-09-04T18:59:57;4.47;;;4.10;;
3873;SDS011;1952;50.872;6.692;2022-09-04T19:02:30;4.07;;;3.77;;
3873;SDS011;1952;50.872;6.692;2022-09-04T19:05:11;4.30;;;3.90;;
3873;SDS011;1952;50.872;6.692;2022-09-04T19:07:51;4.27;;;3.97;;
3873;SDS011;1952;50.872;6.692;2022-09-04T19:10:55;3.37;;;3.07;;
3873;SDS011;1952;50.872;6.692;2022-09-04T19:13:34;4.03;;;3.63;;
3873;SDS011;1952;50.872;6.692;2022-09-04T19:16:07;4.00;;;3.50;;
3873;SDS011;1952;50.872;6.692;2022-09-04T19:18:53;4.13;;;3.83;;
3873;SDS011;1952;50.872;6.692;2022-09-04T19:21:44;4.00;;;3.70;;
3873;SDS011;1952;50.872;6.692;2022-09-04T19:24:25;4.57;;;4.17;;
3873;SDS011;1952;50.872;6.692;2022-09-04T19:27:10;3.57;;;3.27;;
3873;SDS011;1952;50.872;6.692;2022-09-04T19:29:55;3.90;;;3.60;;
3873;SDS011;1952;50.872;6.692;2022-09-04T19:32:50;3.83;;;3.50;;
3873;SDS011;1952;50.872;6.692;2022-09-04T19:35:33;5.03;;;4.63;;
3873;SDS011;1952;50.872;6.692;2022-09-04T19:38:07;3.87;;;3.57;;
3873;SDS011;1952;50.872;6.692;2022-09-04T19:40:43;4.33;;;3.40;;
3873;SDS011;1952;50.872;6.692;2022-09-04T19:43:17;3.87;;;3.53;;
3873;SDS011;1952;50.872;6.692;2022-09-04T19:46:17;4.13;;;3.83;;
3873;SDS011;1952;50.872;6.692;2022-09-04T19:49:08;3.90;;;3.60;;
3873;SDS011;1952;50.872;6.692;2022-09-04T19:52:06;3.13;;;2.93;;
3873;SDS011;1952;50.872;6.692;2022-09-04T19:54:44;4.40;;;4.10;;
3873;SDS011;1952;50.872;6.692;2022-09-04T19:57:36;3.70;;;3.40;;
3873;SDS011;1952;50.872;6.692;2022-09-04T20:00:18;4.53;;;3.87;;
3873;SDS011;1952;50.872;6.692;2022-09-04T20:02:49;4.73;;;4.33;;
3873;SDS011;1952;50.872;6.692;2022-09-04T20:05:21;5.37;;;4.27;;
3873;SDS011;1952;50.872;6.692;2022-09-04T20:07:55;4.57;;;4.13;;
3873;SDS011;1952;50.872;6.692;2022-09-04T20:10:42;4.50;;;4.17;;
3873;SDS011;1952;50.872;6.692;2022-09-04T20:13:17;6.60;;;4.97;;
3873;SDS011;1952;50.872;6.692;2022-09-04T20:15:54;4.57;;;4.17;;
3873;SDS011;1952;50.872;6.692;2022-09-04T20:18:31;5.10;;;4.23;;
3873;SDS011;1952;50.872;6.692;2022-09-04T20:21:06;4.23;;;3.87;;
3873;SDS011;1952;50.872;6.692;2022-09-04T20:23:46;4.87;;;4.47;;
3873;SDS011;1952;50.872;6.692;2022-09-04T20:26:25;5.80;;;5.30;;
3873;SDS011;1952;50.872;6.692;2022-09-04T20:29:03;5.77;;;5.17;;
3873;SDS011;1952;50.872;6.692;2022-09-04T20:31:45;6.80;;;5.53;;
3873;SDS011;1952;50.872;6.692;2022-09-04T20:34:30;7.57;;;6.13;;
3873;SDS011;1952;50.872;6.692;2022-09-04T20:37:18;6.73;;;5.80;;
3873;SDS011;1952;50.872;6.692;2022-09-04T20:40:07;5.13;;;4.73;;
3873;SDS011;1952;50.872;6.692;2022-09-04T20:42:45;7.40;;;5.30;;
3873;SDS011;1952;50.872;6.692;2022-09-04T20:45:24;5.50;;;5.00;;
3873;SDS011;1952;50.872;6.692;2022-09-04T20:48:04;7.60;;;5.00;;
3873;SDS011;1952;50.872;6.692;2022-09-04T20:51:03;5.20;;;4.70;;
3873;SDS011;1952;50.872;6.692;2022-09-04T20:53:49;5.80;;;5.30;;
3873;SDS011;1952;50.872;6.692;2022-09-04T20:56:38;7.67;;;5.40;;
3873;SDS011;1952;50.872;6.692;2022-09-04T20:59:37;5.10;;;4.70;;
3873;SDS011;1952;50.872;6.692;2022-09-04T21:02:42;9.30;;;7.50;;
3873;SDS011;1952;50.872;6.692;2022-09-04T21:05:47;5.97;;;5.37;;
3873;SDS011;1952;50.872;6.692;2022-09-04T21:08:29;6.17;;;4.50;;
3873;SDS011;1952;50.872;6.692;2022-09-04T21:11:07;4.63;;;4.23;;
3873;SDS011;1952;50.872;6.692;2022-09-04T21:14:03;4.93;;;4.50;;
3873;SDS011;1952;50.872;6.692;2022-09-04T21:16:42;5.40;;;4.23;;
3873;SDS011;1952;50.872;6.692;2022-09-04T21:19:29;4.40;;;4.10;;
3873;SDS011;1952;50.872;6.692;2022-09-04T21:22:32;5.00;;;4.50;;
3873;SDS011;1952;50.872;6.692;2022-09-04T21:25:19;5.37;;;4.63;;
3873;SDS011;1952;50.872;6.692;2022-09-04T21:28:03;5.33;;;4.40;;
3873;SDS011;1952;50.872;6.692;2022-09-04T21:30:55;5.27;;;4.87;;
3873;SDS011;1952;50.872;6.692;2022-09-04T21:33:38;4.83;;;4.10;;
3873;SDS011;1952;50.872;6.692;2022-09-04T21:36:14;5.17;;;4.37;;
3873;SDS011;1952;50.872;6.692;2022-09-04T21:39:07;4.13;;;3.83;;
3873;SDS011;1952;50.872;6.692;2022-09-04T21:42:10;5.43;;;4.93;;
3873;SDS011;1952;50.872;6.692;2022-09-04T21:45:15;4.13;;;3.83;;
3873;SDS011;1952;50.872;6.692;2022-09-04T21:51:24;4.50;;;4.10;;
3873;SDS011;1952;50.872;6.692;2022-09-04T21:54:22;6.10;;;3.80;;
3873;SDS011;1952;50.872;6.692;2022-09-04T21:57:13;4.63;;;4.23;;
3873;SDS011;1952;50.872;6.692;2022-09-04T22:00:13;5.03;;;3.83;;
3873;SDS011;1952;50.872;6.692;2022-09-04T22:03:19;5.13;;;4.73;;
3873;SDS011;1952;50.872;6.692;2022-09-04T22:06:11;5.10;;;4.70;;
3873;SDS011;1952;50.872;6.692;2022-09-04T22:09:03;4.20;;;3.80;;
3873;SDS011;1952;50.872;6.692;2022-09-04T22:11:41;5.17;;;4.40;;